Time;durP1;ratioP1;P1;durP2;ratioP2;P2;SDS_P1;SDS_P2;PMS_P1;PMS_P2;Temp;Humidity;BMP_temperature;BMP_pressure;BME280_temperature;BME280_humidity;BME280_pressure;Samples;Min_cycle;Max_cycle;Signal;HPM_P1;HPM_P2
2022/04/08 00:00:07;;;;;;;;;;;;;;;6.56;74.08;97869.31;5021546;28;19923;-90
2022/04/08 00:02:35;;;;;;;;;;;;;;;6.34;74.03;97873.31;5021538;28;19921;-89
2022/04/08 00:05:00;;;;;;;;;;;;;;;6.28;74.62;97869.84;5021480;28;19925;-90
2022/04/08 00:07:26;;;;;;;;;;;;;;;6.13;75.98;97881.56;5021083;28;20042;-91
2022/04/08 00:09:51;;;;;;;;;;;;;;;6.07;77.92;97886.22;5021917;28;20339;-89
2022/04/08 00:12:16;;;;;;;;;;;;;;;6.26;78.88;97893.66;5020020;28;20255;-89
2022/04/08 00:14:41;;;;;;;;;;;;;;;6.19;77.82;97889.38;5021046;28;19921;-90
2022/04/08 00:17:07;;;;;;;;;;;;;;;6.14;77.95;97897.50;5020348;28;19990;-90
2022/04/08 00:19:32;;;;;;;;;;;;;;;6.09;78.00;97894.84;5020849;28;19921;-89
2022/04/08 00:21:57;;;;;;;;;;;;;;;6.18;77.80;97903.19;5020127;28;19921;-89
2022/04/08 00:24:22;;;;;;;;;;;;;;;6.18;77.91;97900.50;5020373;28;19921;-89
2022/04/08 00:26:47;;;;;;;;;;;;;;;6.21;78.62;97915.34;5020624;28;20003;-91
2022/04/08 00:29:16;;;;;;;;;;;;;;;6.23;77.80;97913.16;5035497;28;19921;-90
2022/04/08 00:31:41;;;;;;;;;;;;;;;6.37;77.35;97921.44;5020478;28;20240;-90
2022/04/08 00:34:06;;;;;;;;;;;;;;;6.27;77.49;97915.03;5019343;28;19917;-90
2022/04/08 00:36:31;;;;;;;;;;;;;;;6.18;79.49;97933.75;5020121;28;20198;-90
2022/04/08 00:38:57;;;;;;;;;;;;;;;6.26;79.20;97931.56;5020955;28;20459;-89
2022/04/08 00:41:23;;;;;;;;;;;;;;;6.36;79.29;97933.38;5014591;28;19924;-90
2022/04/08 00:43:48;;;;;;;;;;;;;;;6.23;80.40;97937.50;5019621;28;19921;-90
2022/04/08 00:46:13;;;;;;;;;;;;;;;6.01;79.64;97947.63;5019902;28;20311;-90
2022/04/08 00:48:38;;;;;;;;;;;;;;;5.83;81.14;97962.59;5019796;28;20352;-90
2022/04/08 00:51:05;;;;;;;;;;;;;;;5.79;81.07;97956.94;5019442;28;19944;-89
2022/04/08 00:53:31;;;;;;;;;;;;;;;5.83;81.67;97968.84;5018264;28;20020;-91
2022/04/08 00:55:56;;;;;;;;;;;;;;;5.71;82.29;97973.75;5020738;28;20475;-91
2022/04/08 00:58:22;;;;;;;;;;;;;;;5.76;82.99;97979.13;5020999;28;20252;-89
2022/04/08 01:00:47;;;;;;;;;;;;;;;5.78;83.06;97976.13;5020441;28;19960;-91
2022/04/08 01:03:13;;;;;;;;;;;;;;;6.00;83.32;97983.09;5020757;28;19945;-90
2022/04/08 01:05:38;;;;;;;;;;;;;;;5.84;83.27;97980.44;5020363;28;20064;-91
2022/04/08 01:08:03;;;;;;;;;;;;;;;5.89;83.32;97990.44;5013986;28;20020;-91
2022/04/08 01:10:31;;;;;;;;;;;;;;;5.77;83.47;98002.38;5020440;28;20335;-92
2022/04/08 01:12:56;;;;;;;;;;;;;;;5.75;84.34;97998.34;5021254;28;19974;-91
2022/04/08 01:15:22;;;;;;;;;;;;;;;5.83;83.39;98005.88;5020556;28;19917;-91
2022/04/08 01:17:47;;;;;;;;;;;;;;;5.63;83.44;98004.88;5019875;28;19917;-91
2022/04/08 01:20:13;;;;;;;;;;;;;;;5.57;84.29;98004.06;5014013;28;19922;-89
2022/04/08 01:22:38;;;;;;;;;;;;;;;5.48;84.50;98009.22;5020773;28;19917;-91
2022/04/08 01:25:04;;;;;;;;;;;;;;;5.68;85.26;98012.97;5017149;28;20311;-91
2022/04/08 01:27:30;;;;;;;;;;;;;;;5.88;84.20;98024.00;5019777;28;19925;-91
2022/04/08 01:29:55;;;;;;;;;;;;;;;5.72;84.47;98016.72;5019498;28;20015;-91
2022/04/08 01:32:22;;;;;;;;;;;;;;;5.69;84.26;98032.69;5020001;28;20019;-90
2022/04/08 01:34:49;;;;;;;;;;;;;;;5.73;84.99;98021.03;5019685;28;19928;-91
2022/04/08 01:37:27;;;;;;;;;;;;;;;5.62;85.01;98032.97;5021409;28;20206;-89
2022/04/08 01:39:52;;;;;;;;;;;;;;;5.53;85.43;98030.03;5020640;28;19924;-89
2022/04/08 01:42:22;;;;;;;;;;;;;;;5.66;84.64;98047.56;5022093;28;19927;-90
2022/04/08 01:44:47;;;;;;;;;;;;;;;5.81;84.57;98045.91;5023848;28;19925;-90
2022/04/08 01:47:13;;;;;;;;;;;;;;;5.93;83.44;98049.13;5023146;28;19925;-91
2022/04/08 01:49:38;;;;;;;;;;;;;;;5.66;83.46;98052.97;5024104;28;19928;-91
2022/04/08 01:52:03;;;;;;;;;;;;;;;5.70;82.13;98050.53;5023740;28;20599;-92
2022/04/08 01:54:28;;;;;;;;;;;;;;;5.79;82.34;98059.72;5020977;28;19921;-90
2022/04/08 01:56:54;;;;;;;;;;;;;;;5.93;81.06;98069.94;5021263;28;19983;-91
2022/04/08 01:59:19;;;;;;;;;;;;;;;5.65;80.79;98067.59;5023506;28;20178;-90
2022/04/08 02:01:44;;;;;;;;;;;;;;;5.84;81.37;98062.41;5023249;28;19929;-91
2022/04/08 02:04:09;;;;;;;;;;;;;;;5.77;79.65;98066.47;5023418;28;19921;-91
2022/04/08 02:06:36;;;;;;;;;;;;;;;5.83;79.89;98062.69;5024241;28;19925;-92
2022/04/08 02:09:02;;;;;;;;;;;;;;;5.71;79.10;98057.56;5024128;28;19928;-91
2022/04/08 02:11:27;;;;;;;;;;;;;;;5.70;79.58;98056.75;5017226;28;19924;-91
2022/04/08 02:13:52;;;;;;;;;;;;;;;5.89;79.37;98064.28;5023419;28;20353;-90
2022/04/08 02:16:17;;;;;;;;;;;;;;;5.52;79.26;98063.56;5024018;28;20560;-91
2022/04/08 02:18:42;;;;;;;;;;;;;;;5.65;79.95;98075.72;5023999;28;19921;-91
2022/04/08 02:21:09;;;;;;;;;;;;;;;5.77;79.24;98082.72;5022451;28;20012;-91
2022/04/08 02:23:34;;;;;;;;;;;;;;;5.55;80.01;98091.94;5016748;28;19929;-91
2022/04/08 02:26:00;;;;;;;;;;;;;;;5.56;79.49;98094.38;5023646;28;20387;-90
2022/04/08 02:28:25;;;;;;;;;;;;;;;5.54;80.03;98091.13;5022809;28;20008;-91
2022/04/08 02:30:52;;;;;;;;;;;;;;;5.51;79.86;98110.59;5019796;28;19921;-90
2022/04/08 02:33:18;;;;;;;;;;;;;;;5.43;79.69;98106.53;5023070;28;19917;-91
2022/04/08 02:35:43;;;;;;;;;;;;;;;5.49;79.49;98113.56;5023037;28;20404;-90
2022/04/08 02:38:09;;;;;;;;;;;;;;;5.45;79.80;98109.78;5023556;28;19947;-91
2022/04/08 02:40:35;;;;;;;;;;;;;;;5.57;80.17;98112.19;5022587;28;19925;-91
2022/04/08 02:43:00;;;;;;;;;;;;;;;5.39;80.96;98127.06;5022662;28;20020;-91
2022/04/08 02:45:25;;;;;;;;;;;;;;;5.46;80.25;98116.81;5022851;28;20413;-91
2022/04/08 02:47:50;;;;;;;;;;;;;;;5.61;80.57;98126.78;5022031;28;19925;-90
2022/04/08 02:50:15;;;;;;;;;;;;;;;5.64;80.95;98128.16;5022464;28;19921;-90
2022/04/08 02:52:40;;;;;;;;;;;;;;;5.55;81.64;98140.63;5022368;28;20546;-90
2022/04/08 02:55:06;;;;;;;;;;;;;;;5.58;81.80;98129.25;5022537;28;19917;-90
2022/04/08 02:57:31;;;;;;;;;;;;;;;5.70;81.52;98127.06;5022980;28;19928;-91
2022/04/08 02:59:58;;;;;;;;;;;;;;;5.68;81.54;98144.63;5022647;28;19925;-91
2022/04/08 03:02:24;;;;;;;;;;;;;;;5.70;81.37;98147.88;5024066;28;19925;-91
2022/04/08 03:04:49;;;;;;;;;;;;;;;5.81;80.50;98143.28;5022401;28;19928;-91
2022/04/08 03:07:14;;;;;;;;;;;;;;;5.47;82.06;98150.88;5022206;28;19921;-90
2022/04/08 03:09:39;;;;;;;;;;;;;;;5.52;81.59;98141.97;5022746;28;19987;-92
2022/04/08 03:12:05;;;;;;;;;;;;;;;5.76;80.46;98143.28;5021720;28;19940;-90
2022/04/08 03:14:31;;;;;;;;;;;;;;;5.70;80.07;98153.28;5022032;28;19921;-91
2022/04/08 03:16:56;;;;;;;;;;;;;;;5.61;80.36;98145.72;5022024;28;19928;-90
2022/04/08 03:19:21;;;;;;;;;;;;;;;5.56;80.59;98147.63;5022485;28;19999;-91
2022/04/08 03:21:47;;;;;;;;;;;;;;;5.60;80.05;98148.69;5017517;28;20059;-90
2022/04/08 03:24:12;;;;;;;;;;;;;;;5.51;79.89;98150.34;5022492;28;20341;-91
2022/04/08 03:26:37;;;;;;;;;;;;;;;5.67;79.39;98149.25;5021845;28;19921;-91
2022/04/08 03:29:03;;;;;;;;;;;;;;;5.68;79.30;98144.63;5021861;28;20317;-90
2022/04/08 03:31:42;;;;;;;;;;;;;;;5.62;79.08;98157.34;5019432;28;19925;-91
2022/04/08 03:34:07;;;;;;;;;;;;;;;5.82;78.86;98150.31;5021678;28;19925;-90
2022/04/08 03:36:33;;;;;;;;;;;;;;;5.86;78.88;98153.28;5022516;28;20305;-91
2022/04/08 03:38:58;;;;;;;;;;;;;;;5.68;78.70;98150.88;5021480;28;19924;-90
2022/04/08 03:41:23;;;;;;;;;;;;;;;5.68;79.47;98150.03;5021640;28;20177;-90
2022/04/08 03:43:48;;;;;;;;;;;;;;;5.85;78.86;98160.59;5020942;28;19917;-90
2022/04/08 03:46:13;;;;;;;;;;;;;;;5.80;78.94;98166.00;5020389;28;20299;-90
2022/04/08 03:48:42;;;;;;;;;;;;;;;5.86;79.00;98173.00;5020933;28;19917;-91
2022/04/08 03:51:08;;;;;;;;;;;;;;;5.66;79.35;98174.66;5020933;28;20038;-90
2022/04/08 03:53:35;;;;;;;;;;;;;;;5.53;80.09;98177.91;5020804;28;23076;-91
2022/04/08 03:56:02;;;;;;;;;;;;;;;5.73;79.58;98177.88;5021948;28;20022;-92
2022/04/08 03:58:27;;;;;;;;;;;;;;;5.57;79.54;98187.91;5021373;28;19932;-91
2022/04/08 04:00:53;;;;;;;;;;;;;;;5.40;79.75;98196.28;5020535;28;19925;-91
2022/04/08 04:03:18;;;;;;;;;;;;;;;5.57;79.85;98200.63;5021992;28;20253;-91
2022/04/08 04:05:44;;;;;;;;;;;;;;;5.66;78.60;98198.19;5021890;28;19944;-90
2022/04/08 04:08:10;;;;;;;;;;;;;;;5.54;77.81;98203.84;5021729;28;20012;-90
2022/04/08 04:10:36;;;;;;;;;;;;;;;5.47;76.62;98210.34;5020694;28;19935;-92
2022/04/08 04:13:01;;;;;;;;;;;;;;;5.61;76.12;98207.91;5021915;28;19921;-91
2022/04/08 04:15:26;;;;;;;;;;;;;;;5.45;75.74;98219.81;5019885;28;19979;-92
2022/04/08 04:17:51;;;;;;;;;;;;;;;5.41;75.27;98210.63;5020625;28;20442;-90
2022/04/08 04:20:16;;;;;;;;;;;;;;;5.37;75.33;98218.44;5021065;28;19944;-90
2022/04/08 04:22:41;;;;;;;;;;;;;;;5.54;75.65;98220.09;5021034;28;20011;-89
2022/04/08 04:25:07;;;;;;;;;;;;;;;5.45;75.61;98211.72;5020688;28;19979;-90
2022/04/08 04:27:32;;;;;;;;;;;;;;;5.33;75.90;98220.06;5020573;28;19917;-89
2022/04/08 04:29:57;;;;;;;;;;;;;;;5.49;75.80;98219.00;5021600;28;19971;-91
2022/04/08 04:32:23;;;;;;;;;;;;;;;5.36;75.96;98224.94;5030623;28;19940;-91
2022/04/08 04:34:48;;;;;;;;;;;;;;;5.38;76.30;98220.06;5041467;28;20452;-91
2022/04/08 04:37:13;;;;;;;;;;;;;;;5.37;76.42;98235.47;5034272;28;19924;-90
2022/04/08 04:39:38;;;;;;;;;;;;;;;5.27;76.57;98231.97;5021122;28;20024;-90
2022/04/08 04:42:04;;;;;;;;;;;;;;;5.34;76.41;98225.22;5020765;28;20328;-90
2022/04/08 04:44:29;;;;;;;;;;;;;;;5.36;76.40;98228.47;5020713;28;19995;-90
2022/04/08 04:46:55;;;;;;;;;;;;;;;5.48;76.01;98221.97;5020673;28;20497;-90
2022/04/08 04:49:20;;;;;;;;;;;;;;;5.37;76.03;98227.38;5021129;28;19932;-90
2022/04/08 04:51:45;;;;;;;;;;;;;;;5.39;76.39;98231.69;5020737;28;19933;-90
2022/04/08 04:54:10;;;;;;;;;;;;;;;5.36;76.22;98225.75;5021539;28;20388;-91
2022/04/08 04:56:36;;;;;;;;;;;;;;;5.45;76.78;98227.94;5020693;28;19984;-91
2022/04/08 04:59:01;;;;;;;;;;;;;;;5.20;77.36;98227.63;5019488;28;19924;-90
2022/04/08 05:01:26;;;;;;;;;;;;;;;5.36;76.93;98239.25;5020622;28;20343;-90
2022/04/08 05:03:51;;;;;;;;;;;;;;;5.44;76.89;98232.53;5020956;28;20153;-91
2022/04/08 05:06:16;;;;;;;;;;;;;;;5.33;78.28;98239.00;5021201;28;20437;-89
2022/04/08 05:08:42;;;;;;;;;;;;;;;5.23;78.59;98242.47;5020969;28;19983;-90
2022/04/08 05:11:07;;;;;;;;;;;;;;;5.21;79.47;98245.44;5020580;28;19925;-90
2022/04/08 05:13:35;;;;;;;;;;;;;;;5.39;78.76;98239.81;5020518;28;19921;-90
2022/04/08 05:16:00;;;;;;;;;;;;;;;5.24;78.27;98239.50;5020703;28;19921;-90
2022/04/08 05:18:39;;;;;;;;;;;;;;;5.30;77.30;98237.63;5024785;28;19928;-90
2022/04/08 05:21:04;;;;;;;;;;;;;;;5.20;75.93;98246.53;5024503;28;20197;-91
2022/04/08 05:23:29;;;;;;;;;;;;;;;5.18;75.61;98245.16;5025004;28;19928;-90
2022/04/08 05:25:57;;;;;;;;;;;;;;;5.25;75.51;98243.84;5024789;28;20191;-90
2022/04/08 05:28:23;;;;;;;;;;;;;;;5.22;75.47;98252.47;5024892;28;19968;-90
2022/04/08 05:30:48;;;;;;;;;;;;;;;5.14;75.52;98261.09;5024400;28;20388;-90
2022/04/08 05:33:13;;;;;;;;;;;;;;;5.16;75.91;98264.34;5025149;28;20401;-90
2022/04/08 05:35:39;;;;;;;;;;;;;;;5.10;77.10;98255.44;5024271;28;19917;-90
2022/04/08 05:38:04;;;;;;;;;;;;;;;5.19;76.45;98258.41;5026259;28;19921;-90
2022/04/08 05:40:30;;;;;;;;;;;;;;;5.33;76.54;98256.00;5024186;28;19921;-89
2022/04/08 05:42:55;;;;;;;;;;;;;;;5.32;76.94;98254.41;5023915;28;19925;-90
2022/04/08 05:45:23;;;;;;;;;;;;;;;5.27;77.01;98254.38;5024344;28;19921;-90
2022/04/08 05:47:50;;;;;;;;;;;;;;;5.02;77.38;98254.03;5023724;28;19932;-91
2022/04/08 05:50:15;;;;;;;;;;;;;;;5.12;77.85;98257.84;5024149;28;20311;-90
2022/04/08 05:52:41;;;;;;;;;;;;;;;5.20;77.35;98262.75;5024263;28;20262;-90
2022/04/08 05:55:07;;;;;;;;;;;;;;;5.34;77.69;98259.53;5023247;28;19917;-89
2022/04/08 05:57:36;;;;;;;;;;;;;;;5.34;77.47;98256.81;5023317;28;19929;-90
2022/04/08 06:00:01;;;;;;;;;;;;;;;5.31;78.12;98255.47;5023930;28;19925;-90
2022/04/08 06:02:26;;;;;;;;;;;;;;;5.37;77.56;98258.97;5023502;28;20304;-91
2022/04/08 06:04:52;;;;;;;;;;;;;;;5.19;78.80;98257.59;5023389;28;20440;-90
2022/04/08 06:07:18;;;;;;;;;;;;;;;5.32;78.18;98250.88;5024239;28;19991;-90
2022/04/08 06:09:43;;;;;;;;;;;;;;;5.53;77.85;98246.31;5024146;28;20411;-90
2022/04/08 06:12:08;;;;;;;;;;;;;;;5.59;77.05;98244.44;5023593;28;20008;-91
2022/04/08 06:14:33;;;;;;;;;;;;;;;5.63;77.27;98239.28;5023347;28;20255;-90
2022/04/08 06:16:58;;;;;;;;;;;;;;;5.64;77.57;98241.72;5023217;28;20379;-90
2022/04/08 06:19:24;;;;;;;;;;;;;;;5.63;78.06;98234.72;5016816;28;20035;-90
2022/04/08 06:21:49;;;;;;;;;;;;;;;5.79;77.31;98243.63;5022845;28;19921;-88
2022/04/08 06:24:14;;;;;;;;;;;;;;;5.86;76.17;98242.56;5023526;28;19943;-90
2022/04/08 06:26:39;;;;;;;;;;;;;;;5.88;76.37;98240.38;5022871;28;20474;-90
2022/04/08 06:29:05;;;;;;;;;;;;;;;5.91;76.57;98240.66;5023393;28;20233;-89
2022/04/08 06:31:33;;;;;;;;;;;;;;;5.90;76.54;98233.59;5022410;28;19979;-89
2022/04/08 06:33:59;;;;;;;;;;;;;;;6.03;76.46;98237.66;5013853;28;19925;-89
2022/04/08 06:36:25;;;;;;;;;;;;;;;5.92;76.21;98236.84;5005349;28;19917;-90
2022/04/08 06:38:50;;;;;;;;;;;;;;;6.01;76.73;98231.72;5042915;28;19944;-90
2022/04/08 06:41:15;;;;;;;;;;;;;;;5.90;77.20;98233.59;5031869;28;20018;-90
2022/04/08 06:43:40;;;;;;;;;;;;;;;6.04;76.42;98227.66;5022927;28;19925;-90
2022/04/08 06:46:06;;;;;;;;;;;;;;;5.99;76.75;98241.19;5022713;28;20047;-89
2022/04/08 06:48:32;;;;;;;;;;;;;;;6.22;76.24;98233.63;5022621;28;20369;-87
2022/04/08 06:51:00;;;;;;;;;;;;;;;6.26;75.88;98238.22;5023291;28;19963;-89
2022/04/08 06:53:25;;;;;;;;;;;;;;;6.35;75.52;98224.91;5023014;28;20304;-90
2022/04/08 06:55:50;;;;;;;;;;;;;;;6.33;75.51;98224.38;5023241;28;19917;-90
2022/04/08 06:58:15;;;;;;;;;;;;;;;6.42;74.33;98230.88;5023176;28;19978;-90
2022/04/08 07:00:40;;;;;;;;;;;;;;;6.54;74.61;98235.16;5022417;28;19925;-90
2022/04/08 07:05:49;;;;;;;;;;;;;;;6.87;73.62;98235.59;5020566;28;19924;-90
2022/04/08 07:08:15;;;;;;;;;;;;;;;6.86;73.32;98233.97;5021882;28;19925;-90
2022/04/08 07:10:40;;;;;;;;;;;;;;;7.02;72.91;98228.47;5017853;28;19921;-90
2022/04/08 07:13:06;;;;;;;;;;;;;;;6.91;72.46;98222.28;5021963;28;20471;-90
2022/04/08 07:15:31;;;;;;;;;;;;;;;6.64;71.05;98223.47;5021727;28;20008;-89
2022/04/08 07:17:57;;;;;;;;;;;;;;;6.45;70.13;98226.00;5022188;28;19925;-89
2022/04/08 07:20:22;;;;;;;;;;;;;;;6.69;71.24;98220.75;5021701;28;20004;-89
2022/04/08 07:22:47;;;;;;;;;;;;;;;6.86;70.96;98220.41;5021416;28;19921;-90
2022/04/08 07:25:12;;;;;;;;;;;;;;;7.00;70.42;98214.38;5022435;28;20404;-90
2022/04/08 07:27:41;;;;;;;;;;;;;;;6.92;69.91;98220.38;5020964;28;20017;-89
2022/04/08 07:30:07;;;;;;;;;;;;;;;7.11;69.97;98209.72;5021588;28;20368;-89
2022/04/08 07:32:32;;;;;;;;;;;;;;;7.28;69.11;98220.19;5015428;28;19928;-89
2022/04/08 07:34:57;;;;;;;;;;;;;;;7.09;69.42;98218.13;5015791;28;20008;-88
2022/04/08 07:37:29;;;;;;;;;;;;;;;7.18;69.48;98220.25;5019100;28;19932;-89
2022/04/08 07:39:54;;;;;;;;;;;;;;;7.26;69.74;98219.66;5041332;28;19921;-90
2022/04/08 07:42:19;;;;;;;;;;;;;;;7.27;67.68;98226.69;5022610;28;20316;-90
2022/04/08 07:44:44;;;;;;;;;;;;;;;7.44;68.10;98230.94;5021110;28;20083;-89
2022/04/08 07:47:10;;;;;;;;;;;;;;;7.36;68.06;98225.00;5022116;28;20147;-90
2022/04/08 07:49:36;;;;;;;;;;;;;;;7.59;67.29;98225.41;5020741;28;19964;-88
2022/04/08 07:52:01;;;;;;;;;;;;;;;7.61;67.65;98230.53;5021432;28;19921;-89
2022/04/08 07:54:26;;;;;;;;;;;;;;;7.52;66.84;98224.09;5021915;28;20454;-89
2022/04/08 07:56:51;;;;;;;;;;;;;;;7.70;67.29;98223.44;5021678;28;19924;-89
2022/04/08 07:59:17;;;;;;;;;;;;;;;7.80;66.79;98213.56;5022133;28;19925;-90
2022/04/08 08:01:43;;;;;;;;;;;;;;;7.92;65.76;98215.91;5021439;28;19979;-89
2022/04/08 08:04:08;;;;;;;;;;;;;;;7.66;65.93;98221.56;5022068;28;19917;-90
2022/04/08 08:06:33;;;;;;;;;;;;;;;7.81;66.43;98215.22;5021325;28;19971;-89
2022/04/08 08:08:58;;;;;;;;;;;;;;;7.65;65.87;98222.63;5022204;28;20368;-89
2022/04/08 08:11:23;;;;;;;;;;;;;;;7.01;64.68;98218.72;5020832;28;19951;-90
2022/04/08 08:13:48;;;;;;;;;;;;;;;7.05;65.74;98216.25;5018037;28;20324;-89
2022/04/08 08:16:14;;;;;;;;;;;;;;;7.17;64.31;98219.44;5001208;28;19925;-89
2022/04/08 08:18:39;;;;;;;;;;;;;;;7.17;64.45;98211.31;5001731;28;19956;-90
2022/04/08 08:21:04;;;;;;;;;;;;;;;7.44;63.23;98217.38;5010538;28;20119;-89
2022/04/08 08:23:29;;;;;;;;;;;;;;;7.33;63.56;98217.44;5021042;28;19917;-89
2022/04/08 08:25:55;;;;;;;;;;;;;;;7.47;63.41;98216.81;5021628;28;20538;-89
2022/04/08 08:28:22;;;;;;;;;;;;;;;7.41;63.70;98217.94;5021625;28;19921;-90
2022/04/08 08:30:47;;;;;;;;;;;;;;;7.61;63.13;98208.84;5021259;28;19925;-89
2022/04/08 08:33:12;;;;;;;;;;;;;;;7.76;62.91;98210.63;5021347;28;19978;-89
2022/04/08 08:35:38;;;;;;;;;;;;;;;8.00;62.34;98207.16;5021378;28;19928;-89
2022/04/08 08:38:03;;;;;;;;;;;;;;;8.18;61.68;98221.09;5035369;28;19925;-90
2022/04/08 08:40:31;;;;;;;;;;;;;;;7.92;61.76;98210.50;5036879;28;19932;-90
2022/04/08 08:42:56;;;;;;;;;;;;;;;7.99;61.99;98205.56;5021027;28;20343;-90
2022/04/08 08:45:21;;;;;;;;;;;;;;;7.90;61.58;98205.34;5020397;28;19948;-89
2022/04/08 08:47:47;;;;;;;;;;;;;;;7.91;61.91;98209.66;5020716;28;19936;-88
2022/04/08 08:50:13;;;;;;;;;;;;;;;7.87;62.22;98213.25;5022787;28;19921;-88
2022/04/08 08:52:38;;;;;;;;;;;;;;;8.31;61.30;98210.66;5027668;28;19921;-89
2022/04/08 08:55:05;;;;;;;;;;;;;;;7.85;60.71;98218.94;5027305;28;19932;-90
2022/04/08 08:57:30;;;;;;;;;;;;;;;8.12;60.80;98214.91;5026331;28;19967;-90
2022/04/08 09:00:05;;;;;;;;;;;;;;;8.29;60.16;98213.66;5027728;28;19917;-90
2022/04/08 09:02:31;;;;;;;;;;;;;;;8.28;59.71;98204.72;5038594;28;20166;-90
2022/04/08 09:04:56;;;;;;;;;;;;;;;8.47;60.26;98195.81;5045726;28;20188;-90
2022/04/08 09:07:25;;;;;;;;;;;;;;;8.32;59.48;98201.44;5047044;28;19947;-90
2022/04/08 09:09:51;;;;;;;;;;;;;;;8.57;60.21;98191.38;5047746;28;19921;-90
2022/04/08 09:12:16;;;;;;;;;;;;;;;8.79;59.84;98195.50;5028869;28;19925;-89
2022/04/08 09:14:52;;;;;;;;;;;;;;;8.78;58.11;98181.09;5027444;28;19917;-89
2022/04/08 09:17:21;;;;;;;;;;;;;;;8.87;57.98;98170.34;5027822;28;19952;-90
2022/04/08 09:19:50;;;;;;;;;;;;;;;9.01;58.09;98161.50;5027582;28;19971;-90
2022/04/08 09:22:16;;;;;;;;;;;;;;;8.72;57.55;98166.75;5027233;28;19929;-90
2022/04/08 09:24:41;;;;;;;;;;;;;;;8.66;56.99;98157.06;5027741;28;20375;-90
2022/04/08 09:27:06;;;;;;;;;;;;;;;8.83;56.39;98144.88;5025932;28;20361;-89
2022/04/08 09:29:33;;;;;;;;;;;;;;;8.79;56.21;98146.59;5027299;28;19921;-90
2022/04/08 09:31:59;;;;;;;;;;;;;;;8.81;56.72;98142.44;5027531;28;19925;-89
2022/04/08 09:34:24;;;;;;;;;;;;;;;8.90;56.04;98137.19;5027455;28;19921;-89
2022/04/08 09:36:49;;;;;;;;;;;;;;;8.64;57.25;98130.16;5032251;28;20371;-89
2022/04/08 09:39:14;;;;;;;;;;;;;;;8.88;56.31;98120.34;5034962;28;19936;-90
2022/04/08 09:41:53;;;;;;;;;;;;;;;8.35;55.57;98122.09;5027351;28;20321;-90
2022/04/08 09:44:24;;;;;;;;;;;;;;;8.98;56.68;98108.53;5027743;28;19956;-90
2022/04/08 09:46:49;;;;;;;;;;;;;;;8.99;55.60;98102.78;5026752;28;19921;-89
2022/04/08 09:49:15;;;;;;;;;;;;;;;9.10;54.69;98099.91;5027217;28;20410;-88
2022/04/08 09:51:40;;;;;;;;;;;;;;;9.12;53.43;98094.97;5027347;28;20351;-91
2022/04/08 09:54:07;;;;;;;;;;;;;;;8.98;52.65;98094.94;5026742;28;19925;-89
2022/04/08 09:56:33;;;;;;;;;;;;;;;9.33;53.68;98098.19;5026559;28;19924;-90
2022/04/08 09:59:12;;;;;;;;;;;;;;;9.20;54.81;98097.03;5026938;28;19921;-90
2022/04/08 10:01:38;;;;;;;;;;;;;;;9.14;52.73;98095.50;5024808;28;20052;-90
2022/04/08 10:04:05;;;;;;;;;;;;;;;8.91;53.70;98098.00;5023426;28;20391;-90
2022/04/08 10:06:30;;;;;;;;;;;;;;;8.52;53.09;98097.19;5024170;28;19960;-90
2022/04/08 10:08:56;;;;;;;;;;;;;;;8.85;52.63;98091.03;5023918;28;19967;-89
2022/04/08 10:11:28;;;;;;;;;;;;;;;8.88;52.87;98093.16;5023252;28;20440;-89
2022/04/08 10:14:19;;;;;;;;;;;;;;;8.97;52.62;98087.88;5023904;28;20384;-89
2022/04/08 10:16:51;;;;;;;;;;;;;;;9.02;53.53;98082.38;5023349;28;19927;-89
2022/04/08 10:19:17;;;;;;;;;;;;;;;9.08;53.16;98091.25;5019319;28;19924;-89
2022/04/08 10:21:42;;;;;;;;;;;;;;;8.93;52.22;98089.59;5023170;28;19927;-89
2022/04/08 10:24:10;;;;;;;;;;;;;;;9.14;52.89;98087.34;5020653;28;20595;-88
2022/04/08 10:26:35;;;;;;;;;;;;;;;9.09;52.36;98092.88;5019478;28;20272;-89
2022/04/08 10:29:09;;;;;;;;;;;;;;;9.46;53.12;98085.72;5019989;28;19925;-90
2022/04/08 10:31:34;;;;;;;;;;;;;;;9.44;51.77;98081.69;5017689;28;20100;-89
2022/04/08 10:34:00;;;;;;;;;;;;;;;9.45;52.57;98075.97;5014977;28;19948;-90
2022/04/08 10:36:39;;;;;;;;;;;;;;;9.42;51.90;98079.25;5022452;28;19931;-90
2022/04/08 10:39:14;;;;;;;;;;;;;;;9.26;52.76;98083.34;5020647;28;20419;-88
2022/04/08 10:41:53;;;;;;;;;;;;;;;9.53;51.96;98081.81;5021564;28;20379;-90
2022/04/08 10:44:31;;;;;;;;;;;;;;;9.42;51.58;98084.72;5024112;28;19963;-90
2022/04/08 10:46:57;;;;;;;;;;;;;;;9.51;51.59;98087.56;5021076;28;20110;-89
2022/04/08 10:49:22;;;;;;;;;;;;;;;9.29;51.14;98082.75;5021636;28;19979;-89
2022/04/08 10:51:48;;;;;;;;;;;;;;;9.26;51.19;98081.44;5021967;28;19928;-89
2022/04/08 10:54:14;;;;;;;;;;;;;;;9.30;51.97;98087.09;5018486;28;19921;-90
2022/04/08 10:56:39;;;;;;;;;;;;;;;9.05;51.09;98080.97;5020331;28;19932;-89
2022/04/08 10:59:04;;;;;;;;;;;;;;;8.69;51.87;98077.66;5021785;28;19932;-89
2022/04/08 11:01:34;;;;;;;;;;;;;;;9.14;52.71;98070.22;5024190;28;19968;-89
2022/04/08 11:04:01;;;;;;;;;;;;;;;9.30;52.85;98062.59;5029521;28;20084;-89
2022/04/08 11:06:27;;;;;;;;;;;;;;;9.28;52.92;98070.25;5022304;28;19921;-89
2022/04/08 11:08:52;;;;;;;;;;;;;;;9.15;53.80;98069.94;5014030;28;19925;-89
2022/04/08 11:11:27;;;;;;;;;;;;;;;9.04;53.45;98063.03;5013508;28;20006;-89
2022/04/08 11:13:57;;;;;;;;;;;;;;;8.85;53.82;98061.13;5022519;28;19920;-89
2022/04/08 11:16:22;;;;;;;;;;;;;;;8.95;53.62;98062.91;5023023;28;19932;-87
2022/04/08 11:18:48;;;;;;;;;;;;;;;9.04;54.28;98060.31;5023370;28;19921;-89
2022/04/08 11:21:18;;;;;;;;;;;;;;;9.33;54.04;98056.59;5021819;28;19921;-89
2022/04/08 11:23:43;;;;;;;;;;;;;;;9.37;53.96;98049.44;5006189;28;19928;-89
2022/04/08 11:26:11;;;;;;;;;;;;;;;9.31;53.84;98039.75;5021487;28;19917;-90
2022/04/08 11:28:36;;;;;;;;;;;;;;;9.47;53.54;98026.69;5008433;28;20415;-90
2022/04/08 11:31:01;;;;;;;;;;;;;;;9.42;51.75;98029.50;5010884;28;19932;-90
2022/04/08 11:33:30;;;;;;;;;;;;;;;9.09;50.30;98019.47;5016067;28;19933;-90
2022/04/08 11:35:57;;;;;;;;;;;;;;;9.05;51.89;98021.16;5016422;28;19932;-89
2022/04/08 11:38:22;;;;;;;;;;;;;;;9.13;51.73;98012.34;5021220;28;19932;-89
2022/04/08 11:40:48;;;;;;;;;;;;;;;9.34;52.26;98006.50;5020308;28;20237;-89
2022/04/08 11:43:17;;;;;;;;;;;;;;;9.37;51.54;98010.56;5013445;28;19996;-89
2022/04/08 11:45:42;;;;;;;;;;;;;;;9.41;51.44;98006.94;5021566;28;20380;-89
2022/04/08 11:48:13;;;;;;;;;;;;;;;9.41;51.85;98012.38;5021978;28;19944;-90
2022/04/08 11:50:40;;;;;;;;;;;;;;;9.29;51.24;98015.59;5020455;28;19979;-89
2022/04/08 11:53:12;;;;;;;;;;;;;;;9.15;52.77;98021.00;5001853;28;19936;-90
2022/04/08 11:55:37;;;;;;;;;;;;;;;9.45;51.77;98018.84;5008283;28;19921;-89
2022/04/08 12:00:48;;;;;;;;;;;;;;;9.64;50.66;97996.16;5007811;28;19932;-90
2022/04/08 12:03:17;;;;;;;;;;;;;;;9.69;50.30;98006.97;5020902;28;19925;-90
2022/04/08 12:05:45;;;;;;;;;;;;;;;9.82;51.42;97999.09;5021855;28;20178;-89
2022/04/08 12:08:10;;;;;;;;;;;;;;;9.37;50.80;97989.59;5020827;28;19928;-90
2022/04/08 12:10:36;;;;;;;;;;;;;;;9.61;51.03;97982.34;5021129;28;19929;-89
2022/04/08 12:13:11;;;;;;;;;;;;;;;9.82;50.36;97985.50;5010526;28;20664;-90
2022/04/08 12:15:40;;;;;;;;;;;;;;;9.67;50.60;97981.97;5021915;28;20242;-90
2022/04/08 12:18:06;;;;;;;;;;;;;;;9.61;51.23;97977.72;5022240;28;19929;-90
2022/04/08 12:20:31;;;;;;;;;;;;;;;9.73;50.30;97979.13;5020198;28;19925;-90
2022/04/08 12:22:57;;;;;;;;;;;;;;;9.33;51.03;97966.84;5018910;28;19925;-89
2022/04/08 12:25:22;;;;;;;;;;;;;;;9.68;51.55;97959.06;5020738;28;20043;-89
2022/04/08 12:27:58;;;;;;;;;;;;;;;9.47;50.99;97958.69;5021102;28;20152;-90
2022/04/08 12:30:31;;;;;;;;;;;;;;;9.53;52.02;97956.66;5021321;28;20285;-89
2022/04/08 12:32:56;;;;;;;;;;;;;;;9.29;51.78;97946.78;5019396;28;20343;-88
2022/04/08 12:35:21;;;;;;;;;;;;;;;9.52;51.75;97936.03;5002076;28;20022;-88
2022/04/08 12:37:47;;;;;;;;;;;;;;;9.62;51.90;97940.47;5010984;28;20007;-90
2022/04/08 12:40:12;;;;;;;;;;;;;;;9.77;52.29;97948.28;5016491;28;19925;-89
2022/04/08 12:42:38;;;;;;;;;;;;;;;9.72;51.47;97961.22;5020900;28;19921;-89
2022/04/08 12:45:04;;;;;;;;;;;;;;;9.93;50.67;97954.22;5020900;28;19917;-89
2022/04/08 12:47:29;;;;;;;;;;;;;;;9.83;51.49;97943.53;5017732;28;19921;-89
2022/04/08 12:49:55;;;;;;;;;;;;;;;9.90;50.94;97951.31;5016582;28;19922;-89
2022/04/08 12:52:20;;;;;;;;;;;;;;;9.84;51.04;97953.34;5019061;28;20304;-87
2022/04/08 12:54:45;;;;;;;;;;;;;;;9.68;51.86;97955.56;5019278;28;19925;-89
2022/04/08 12:57:10;;;;;;;;;;;;;;;9.96;51.88;97954.72;5009231;28;20003;-87